sensor_id;sensor_type;location;lat;lon;timestamp;temperature;humidity
10010;DHT22;5044;48.652;9.250;2022-08-23T19:05:37;23.90;65.40
10010;DHT22;5044;48.652;9.250;2022-08-23T19:08:06;23.60;66.00
10010;DHT22;5044;48.652;9.250;2022-08-23T19:13:02;23.50;68.80
10010;DHT22;5044;48.652;9.250;2022-08-23T19:15:29;23.50;69.60
10010;DHT22;5044;48.652;9.250;2022-08-23T19:17:58;23.30;69.90
10010;DHT22;5044;48.652;9.250;2022-08-23T19:20:26;23.30;69.30
10010;DHT22;5044;48.652;9.250;2022-08-23T19:22:55;23.20;71.70
10010;DHT22;5044;48.652;9.250;2022-08-23T19:25:23;23.20;71.40
10010;DHT22;5044;48.652;9.250;2022-08-23T19:27:49;23.10;72.50
10010;DHT22;5044;48.652;9.250;2022-08-23T19:30:17;23.00;72.40
10010;DHT22;5044;48.652;9.250;2022-08-23T19:32:44;23.00;73.10
10010;DHT22;5044;48.652;9.250;2022-08-23T19:35:11;22.90;74.40
10010;DHT22;5044;48.652;9.250;2022-08-23T19:37:38;22.80;73.50
10010;DHT22;5044;48.652;9.250;2022-08-23T19:40:08;22.80;75.90
10010;DHT22;5044;48.652;9.250;2022-08-23T19:42:35;22.80;75.50
10010;DHT22;5044;48.652;9.250;2022-08-23T19:45:03;22.70;77.10
10010;DHT22;5044;48.652;9.250;2022-08-23T19:47:30;22.60;76.30
10010;DHT22;5044;48.652;9.250;2022-08-23T19:49:58;22.60;79.70
10010;DHT22;5044;48.652;9.250;2022-08-23T19:52:25;22.50;78.10
10010;DHT22;5044;48.652;9.250;2022-08-23T19:54:52;22.50;78.10
10010;DHT22;5044;48.652;9.250;2022-08-23T19:57:21;22.40;77.40
10010;DHT22;5044;48.652;9.250;2022-08-23T19:59:48;22.40;78.00
10010;DHT22;5044;48.652;9.250;2022-08-23T20:02:15;22.50;77.00
10010;DHT22;5044;48.652;9.250;2022-08-23T20:04:42;22.50;76.20
10010;DHT22;5044;48.652;9.250;2022-08-23T20:07:09;22.40;76.40
10010;DHT22;5044;48.652;9.250;2022-08-23T20:09:36;22.40;77.40
10010;DHT22;5044;48.652;9.250;2022-08-23T20:12:04;22.30;77.50
10010;DHT22;5044;48.652;9.250;2022-08-23T20:14:32;22.20;76.70
10010;DHT22;5044;48.652;9.250;2022-08-23T20:17:00;22.20;78.10
10010;DHT22;5044;48.652;9.250;2022-08-23T20:19:29;22.10;78.70
10010;DHT22;5044;48.652;9.250;2022-08-23T20:21:56;22.10;78.40
10010;DHT22;5044;48.652;9.250;2022-08-23T20:24:44;22.00;78.80
10010;DHT22;5044;48.652;9.250;2022-08-23T20:27:12;21.90;80.50
10010;DHT22;5044;48.652;9.250;2022-08-23T20:29:48;21.80;79.70
10010;DHT22;5044;48.652;9.250;2022-08-23T20:32:15;21.80;80.30
10010;DHT22;5044;48.652;9.250;2022-08-23T20:34:47;21.70;79.70
10010;DHT22;5044;48.652;9.250;2022-08-23T20:37:14;21.60;80.90
10010;DHT22;5044;48.652;9.250;2022-08-23T20:39:41;21.60;79.00
10010;DHT22;5044;48.652;9.250;2022-08-23T20:42:08;21.50;81.20
10010;DHT22;5044;48.652;9.250;2022-08-23T20:44:37;21.50;79.80
10010;DHT22;5044;48.652;9.250;2022-08-23T20:47:06;21.40;81.20
10010;DHT22;5044;48.652;9.250;2022-08-23T20:49:33;21.40;80.20
10010;DHT22;5044;48.652;9.250;2022-08-23T20:52:00;21.30;80.20
10010;DHT22;5044;48.652;9.250;2022-08-23T20:54:27;21.30;80.10
10010;DHT22;5044;48.652;9.250;2022-08-23T20:56:53;21.20;84.00
10010;DHT22;5044;48.652;9.250;2022-08-23T20:59:20;21.10;84.10
10010;DHT22;5044;48.652;9.250;2022-08-23T21:01:48;21.10;83.90
10010;DHT22;5044;48.652;9.250;2022-08-23T21:04:17;21.00;86.30
10010;DHT22;5044;48.652;9.250;2022-08-23T21:06:46;21.00;83.90
10010;DHT22;5044;48.652;9.250;2022-08-23T21:09:15;20.90;83.40
10010;DHT22;5044;48.652;9.250;2022-08-23T21:11:44;20.90;83.40
10010;DHT22;5044;48.652;9.250;2022-08-23T21:14:12;20.80;85.00
10010;DHT22;5044;48.652;9.250;2022-08-23T21:16:39;20.70;90.30
10010;DHT22;5044;48.652;9.250;2022-08-23T21:19:06;20.60;88.40
10010;DHT22;5044;48.652;9.250;2022-08-23T21:21:36;20.50;87.40
10010;DHT22;5044;48.652;9.250;2022-08-23T21:24:03;20.50;89.00
10010;DHT22;5044;48.652;9.250;2022-08-23T21:26:30;20.50;90.90
10010;DHT22;5044;48.652;9.250;2022-08-23T21:28:59;20.50;90.40
10010;DHT22;5044;48.652;9.250;2022-08-23T21:31:26;20.40;90.70
10010;DHT22;5044;48.652;9.250;2022-08-23T21:33:54;20.30;92.20
10010;DHT22;5044;48.652;9.250;2022-08-23T21:36:22;20.20;91.40
10010;DHT22;5044;48.652;9.250;2022-08-23T21:38:51;20.10;90.80
10010;DHT22;5044;48.652;9.250;2022-08-23T21:41:30;20.10;91.70
10010;DHT22;5044;48.652;9.250;2022-08-23T21:43:58;20.10;91.00
10010;DHT22;5044;48.652;9.250;2022-08-23T21:46:25;20.00;92.80
10010;DHT22;5044;48.652;9.250;2022-08-23T21:48:52;20.00;92.50
10010;DHT22;5044;48.652;9.250;2022-08-23T21:51:19;19.90;92.40
10010;DHT22;5044;48.652;9.250;2022-08-23T21:53:46;19.90;90.80
10010;DHT22;5044;48.652;9.250;2022-08-23T21:56:15;19.90;91.10
10010;DHT22;5044;48.652;9.250;2022-08-23T21:58:43;19.80;93.50
10010;DHT22;5044;48.652;9.250;2022-08-23T22:01:10;19.70;93.80
10010;DHT22;5044;48.652;9.250;2022-08-23T22:03:37;19.70;94.10
10010;DHT22;5044;48.652;9.250;2022-08-23T22:06:10;19.70;93.50
10010;DHT22;5044;48.652;9.250;2022-08-23T22:08:38;19.70;91.30
10010;DHT22;5044;48.652;9.250;2022-08-23T22:11:05;19.60;91.80
10010;DHT22;5044;48.652;9.250;2022-08-23T22:13:34;19.60;90.60
10010;DHT22;5044;48.652;9.250;2022-08-23T22:16:02;19.50;93.00
10010;DHT22;5044;48.652;9.250;2022-08-23T22:18:29;19.50;91.30
10010;DHT22;5044;48.652;9.250;2022-08-23T22:20:57;19.50;92.30
10010;DHT22;5044;48.652;9.250;2022-08-23T22:23:24;19.40;93.80
10010;DHT22;5044;48.652;9.250;2022-08-23T22:25:51;19.40;94.20
10010;DHT22;5044;48.652;9.250;2022-08-23T22:28:18;19.30;92.70
10010;DHT22;5044;48.652;9.250;2022-08-23T22:30:46;19.20;95.50
10010;DHT22;5044;48.652;9.250;2022-08-23T22:33:13;19.20;95.30
10010;DHT22;5044;48.652;9.250;2022-08-23T22:35:40;19.10;97.00
10010;DHT22;5044;48.652;9.250;2022-08-23T22:38:07;19.00;98.70
10010;DHT22;5044;48.652;9.250;2022-08-23T22:40:34;19.00;96.70
10010;DHT22;5044;48.652;9.250;2022-08-23T22:43:01;19.00;96.20
10010;DHT22;5044;48.652;9.250;2022-08-23T22:45:28;18.90;93.90
10010;DHT22;5044;48.652;9.250;2022-08-23T22:47:57;18.90;95.70
10010;DHT22;5044;48.652;9.250;2022-08-23T22:50:24;18.90;95.20
10010;DHT22;5044;48.652;9.250;2022-08-23T22:52:50;18.80;95.80
10010;DHT22;5044;48.652;9.250;2022-08-23T22:55:18;18.80;98.00
10010;DHT22;5044;48.652;9.250;2022-08-23T22:57:46;18.70;94.40
10010;DHT22;5044;48.652;9.250;2022-08-23T23:00:13;18.70;95.40
10010;DHT22;5044;48.652;9.250;2022-08-23T23:02:40;18.70;93.60
10010;DHT22;5044;48.652;9.250;2022-08-23T23:05:09;18.70;95.00
10010;DHT22;5044;48.652;9.250;2022-08-23T23:07:35;18.70;93.00
10010;DHT22;5044;48.652;9.250;2022-08-23T23:10:20;18.60;93.50
10010;DHT22;5044;48.652;9.250;2022-08-23T23:12:47;18.60;95.00
10010;DHT22;5044;48.652;9.250;2022-08-23T23:15:14;18.60;97.40
10010;DHT22;5044;48.652;9.250;2022-08-23T23:17:41;18.50;98.60
10010;DHT22;5044;48.652;9.250;2022-08-23T23:20:10;18.40;99.90
10010;DHT22;5044;48.652;9.250;2022-08-23T23:22:54;18.30;97.80
10010;DHT22;5044;48.652;9.250;2022-08-23T23:25:21;18.30;96.50
10010;DHT22;5044;48.652;9.250;2022-08-23T23:27:49;18.30;96.50
10010;DHT22;5044;48.652;9.250;2022-08-23T23:30:16;18.30;95.70
10010;DHT22;5044;48.652;9.250;2022-08-23T23:32:42;18.30;94.80
10010;DHT22;5044;48.652;9.250;2022-08-23T23:35:11;18.20;99.80
10010;DHT22;5044;48.652;9.250;2022-08-23T23:37:38;18.20;99.40
10010;DHT22;5044;48.652;9.250;2022-08-23T23:40:06;18.10;97.70
10010;DHT22;5044;48.652;9.250;2022-08-23T23:42:33;18.10;96.90
10010;DHT22;5044;48.652;9.250;2022-08-23T23:45:00;18.10;94.70
10010;DHT22;5044;48.652;9.250;2022-08-23T23:47:29;18.10;97.70
10010;DHT22;5044;48.652;9.250;2022-08-23T23:49:56;18.10;95.40
10010;DHT22;5044;48.652;9.250;2022-08-23T23:52:24;18.00;99.50
10010;DHT22;5044;48.652;9.250;2022-08-23T23:54:51;17.90;99.90
10010;DHT22;5044;48.652;9.250;2022-08-23T23:57:18;17.90;99.80
10010;DHT22;5044;48.652;9.250;2022-08-23T23:59:45;17.80;99.90
